sensor_id;sensor_type;location;lat;lon;timestamp;pressure;altitude;pressure_sealevel;temperature;humidity
76321;BME280;65132;52.088;5.402;2023-06-10T00:02:10;101525.41;;;20.45;59.12
76321;BME280;65132;52.088;5.402;2023-06-10T00:04:36;101531.16;;;20.50;58.91
76321;BME280;65132;52.088;5.402;2023-06-10T00:07:05;101532.41;;;20.48;58.88
76321;BME280;65132;52.088;5.402;2023-06-10T00:09:36;101529.78;;;20.40;58.98
76321;BME280;65132;52.088;5.402;2023-06-10T00:12:09;101532.41;;;20.33;59.37
76321;BME280;65132;52.088;5.402;2023-06-10T00:14:37;101534.81;;;20.36;59.20
76321;BME280;65132;52.088;5.402;2023-06-10T00:17:04;101530.72;;;20.32;59.71
76321;BME280;65132;52.088;5.402;2023-06-10T00:19:30;101536.97;;;20.26;59.55
76321;BME280;65132;52.088;5.402;2023-06-10T00:22:01;101537.16;;;20.24;60.71
76321;BME280;65132;52.088;5.402;2023-06-10T00:24:31;101542.94;;;20.15;60.39
76321;BME280;65132;52.088;5.402;2023-06-10T00:27:00;101532.72;;;20.09;60.90
76321;BME280;65132;52.088;5.402;2023-06-10T00:29:29;101537.44;;;20.00;59.98
76321;BME280;65132;52.088;5.402;2023-06-10T00:31:55;101536.38;;;20.01;60.54
76321;BME280;65132;52.088;5.402;2023-06-10T00:34:21;101537.72;;;20.05;59.71
76321;BME280;65132;52.088;5.402;2023-06-10T00:36:48;101546.81;;;20.06;58.80
76321;BME280;65132;52.088;5.402;2023-06-10T00:39:14;101542.16;;;20.06;58.84
76321;BME280;65132;52.088;5.402;2023-06-10T00:41:41;101544.72;;;19.93;59.54
76321;BME280;65132;52.088;5.402;2023-06-10T00:44:08;101546.41;;;19.94;60.12
76321;BME280;65132;52.088;5.402;2023-06-10T00:46:39;101544.59;;;19.87;60.45
76321;BME280;65132;52.088;5.402;2023-06-10T00:49:06;101544.59;;;19.87;60.34
76321;BME280;65132;52.088;5.402;2023-06-10T00:51:36;101545.56;;;19.79;61.38
76321;BME280;65132;52.088;5.402;2023-06-10T00:54:03;101542.13;;;19.77;59.36
76321;BME280;65132;52.088;5.402;2023-06-10T00:56:31;101551.78;;;19.73;61.06
76321;BME280;65132;52.088;5.402;2023-06-10T00:58:58;101550.06;;;19.72;59.53
76321;BME280;65132;52.088;5.402;2023-06-10T01:01:27;101550.75;;;19.74;57.90
76321;BME280;65132;52.088;5.402;2023-06-10T01:03:54;101538.91;;;19.74;57.44
76321;BME280;65132;52.088;5.402;2023-06-10T01:06:54;101544.19;;;19.75;57.10
76321;BME280;65132;52.088;5.402;2023-06-10T01:14:52;101544.97;;;19.69;56.70
76321;BME280;65132;52.088;5.402;2023-06-10T01:17:26;101549.78;;;19.67;57.74
76321;BME280;65132;52.088;5.402;2023-06-10T01:19:55;101546.19;;;19.67;57.26
76321;BME280;65132;52.088;5.402;2023-06-10T01:22:29;101552.97;;;19.56;58.66
76321;BME280;65132;52.088;5.402;2023-06-10T01:24:55;101558.44;;;19.56;57.00
76321;BME280;65132;52.088;5.402;2023-06-10T01:27:22;101557.31;;;19.51;58.16
76321;BME280;65132;52.088;5.402;2023-06-10T01:29:59;101560.75;;;19.53;57.46
76321;BME280;65132;52.088;5.402;2023-06-10T01:32:44;101554.91;;;19.48;57.56
76321;BME280;65132;52.088;5.402;2023-06-10T01:35:12;101556.25;;;19.37;58.45
76321;BME280;65132;52.088;5.402;2023-06-10T01:37:41;101561.91;;;19.36;58.46
76321;BME280;65132;52.088;5.402;2023-06-10T01:40:10;101553.88;;;19.26;59.47
76321;BME280;65132;52.088;5.402;2023-06-10T01:42:37;101556.13;;;19.23;59.08
76321;BME280;65132;52.088;5.402;2023-06-10T01:45:04;101547.09;;;19.14;60.27
76321;BME280;65132;52.088;5.402;2023-06-10T01:47:34;101555.72;;;19.11;60.87
76321;BME280;65132;52.088;5.402;2023-06-10T01:50:06;101564.00;;;19.03;59.41
76321;BME280;65132;52.088;5.402;2023-06-10T01:52:34;101559.34;;;19.03;61.14
76321;BME280;65132;52.088;5.402;2023-06-10T01:55:01;101556.78;;;19.02;60.28
76321;BME280;65132;52.088;5.402;2023-06-10T01:57:29;101555.34;;;18.91;60.31
76321;BME280;65132;52.088;5.402;2023-06-10T02:00:04;101553.97;;;18.87;60.41
76321;BME280;65132;52.088;5.402;2023-06-10T02:02:30;101554.34;;;18.84;60.64
76321;BME280;65132;52.088;5.402;2023-06-10T02:04:57;101561.34;;;18.87;60.70
76321;BME280;65132;52.088;5.402;2023-06-10T02:07:25;101570.50;;;18.79;59.92
76321;BME280;65132;52.088;5.402;2023-06-10T02:09:52;101559.69;;;18.78;60.66
76321;BME280;65132;52.088;5.402;2023-06-10T02:12:18;101565.34;;;18.76;60.30
76321;BME280;65132;52.088;5.402;2023-06-10T02:14:45;101561.78;;;18.76;61.66
76321;BME280;65132;52.088;5.402;2023-06-10T02:17:11;101563.69;;;18.67;62.74
76321;BME280;65132;52.088;5.402;2023-06-10T02:19:42;101564.22;;;18.63;63.18
76321;BME280;65132;52.088;5.402;2023-06-10T02:22:09;101569.06;;;18.53;64.00
76321;BME280;65132;52.088;5.402;2023-06-10T02:24:42;101572.16;;;18.50;64.00
76321;BME280;65132;52.088;5.402;2023-06-10T02:27:09;101569.09;;;18.45;63.89
76321;BME280;65132;52.088;5.402;2023-06-10T02:29:41;101573.56;;;18.38;63.70
76321;BME280;65132;52.088;5.402;2023-06-10T02:32:08;101570.31;;;18.34;64.96
76321;BME280;65132;52.088;5.402;2023-06-10T02:34:36;101571.22;;;18.27;63.81
76321;BME280;65132;52.088;5.402;2023-06-10T02:37:03;101574.28;;;18.24;65.61
76321;BME280;65132;52.088;5.402;2023-06-10T02:39:29;101583.41;;;18.16;65.71
76321;BME280;65132;52.088;5.402;2023-06-10T02:42:06;101573.63;;;18.14;65.86
76321;BME280;65132;52.088;5.402;2023-06-10T02:44:37;101572.59;;;18.07;65.87
76321;BME280;65132;52.088;5.402;2023-06-10T02:47:05;101572.97;;;18.04;65.72
76321;BME280;65132;52.088;5.402;2023-06-10T02:49:34;101585.97;;;18.02;65.76
76321;BME280;65132;52.088;5.402;2023-06-10T02:52:00;101576.06;;;18.01;66.12
76321;BME280;65132;52.088;5.402;2023-06-10T02:54:30;101578.81;;;18.01;66.34
76321;BME280;65132;52.088;5.402;2023-06-10T02:56:56;101574.88;;;17.95;67.05
76321;BME280;65132;52.088;5.402;2023-06-10T02:59:23;101571.28;;;17.86;67.59
76321;BME280;65132;52.088;5.402;2023-06-10T03:01:52;101573.72;;;17.73;68.50
76321;BME280;65132;52.088;5.402;2023-06-10T03:04:19;101577.47;;;17.64;69.39
76321;BME280;65132;52.088;5.402;2023-06-10T03:06:56;101576.47;;;17.65;69.51
76321;BME280;65132;52.088;5.402;2023-06-10T03:09:23;101575.25;;;17.60;69.75
76321;BME280;65132;52.088;5.402;2023-06-10T03:11:51;101566.00;;;17.61;69.92
76321;BME280;65132;52.088;5.402;2023-06-10T03:14:18;101580.91;;;17.58;69.92
76321;BME280;65132;52.088;5.402;2023-06-10T03:16:46;101577.66;;;17.55;69.90
76321;BME280;65132;52.088;5.402;2023-06-10T03:19:13;101587.03;;;17.44;71.51
76321;BME280;65132;52.088;5.402;2023-06-10T03:21:44;101587.03;;;17.36;70.86
76321;BME280;65132;52.088;5.402;2023-06-10T03:24:13;101587.69;;;17.30;71.52
76321;BME280;65132;52.088;5.402;2023-06-10T03:26:40;101589.22;;;17.25;71.64
76321;BME280;65132;52.088;5.402;2023-06-10T03:29:13;101584.28;;;17.28;71.28
76321;BME280;65132;52.088;5.402;2023-06-10T03:31:39;101590.25;;;17.24;71.67
76321;BME280;65132;52.088;5.402;2023-06-10T03:34:15;101591.97;;;17.25;71.50
76321;BME280;65132;52.088;5.402;2023-06-10T03:36:42;101588.22;;;17.18;72.44
76321;BME280;65132;52.088;5.402;2023-06-10T03:39:09;101588.34;;;17.16;72.53
76321;BME280;65132;52.088;5.402;2023-06-10T03:41:35;101588.53;;;17.15;72.27
76321;BME280;65132;52.088;5.402;2023-06-10T03:44:02;101597.94;;;17.12;72.32
76321;BME280;65132;52.088;5.402;2023-06-10T03:46:28;101596.91;;;17.05;73.00
76321;BME280;65132;52.088;5.402;2023-06-10T03:48:55;101590.09;;;17.09;73.23
76321;BME280;65132;52.088;5.402;2023-06-10T03:51:39;101595.91;;;17.14;74.39
76321;BME280;65132;52.088;5.402;2023-06-10T03:54:07;101596.22;;;17.03;73.70
76321;BME280;65132;52.088;5.402;2023-06-10T03:56:36;101597.94;;;17.12;73.54
76321;BME280;65132;52.088;5.402;2023-06-10T03:59:02;101599.47;;;17.07;74.22
76321;BME280;65132;52.088;5.402;2023-06-10T04:01:31;101599.47;;;17.07;74.75
76321;BME280;65132;52.088;5.402;2023-06-10T04:04:01;101598.63;;;17.14;73.28
76321;BME280;65132;52.088;5.402;2023-06-10T04:06:27;101593.34;;;17.21;73.56
76321;BME280;65132;52.088;5.402;2023-06-10T04:08:53;101599.16;;;17.26;74.42
76321;BME280;65132;52.088;5.402;2023-06-10T04:11:24;101611.97;;;17.33;72.61
76321;BME280;65132;52.088;5.402;2023-06-10T04:13:51;101598.16;;;17.43;72.76
76321;BME280;65132;52.088;5.402;2023-06-10T04:16:18;101593.56;;;17.51;71.37
76321;BME280;65132;52.088;5.402;2023-06-10T04:18:44;101603.66;;;17.59;71.63
76321;BME280;65132;52.088;5.402;2023-06-10T04:21:11;101598.00;;;17.68;71.19
76321;BME280;65132;52.088;5.402;2023-06-10T04:23:37;101599.22;;;17.74;70.44
76321;BME280;65132;52.088;5.402;2023-06-10T04:26:04;101607.94;;;17.85;69.83
76321;BME280;65132;52.088;5.402;2023-06-10T04:28:32;101617.00;;;17.94;69.09
76321;BME280;65132;52.088;5.402;2023-06-10T04:31:04;101612.03;;;17.98;68.41
76321;BME280;65132;52.088;5.402;2023-06-10T04:33:31;101615.06;;;18.11;68.60
76321;BME280;65132;52.088;5.402;2023-06-10T04:35:59;101617.78;;;18.19;68.07
76321;BME280;65132;52.088;5.402;2023-06-10T04:38:26;101615.88;;;18.27;68.81
76321;BME280;65132;52.088;5.402;2023-06-10T04:40:52;101614.56;;;18.23;67.86
76321;BME280;65132;52.088;5.402;2023-06-10T04:43:23;101623.25;;;18.35;67.82
76321;BME280;65132;52.088;5.402;2023-06-10T04:45:57;101628.56;;;18.36;67.58
76321;BME280;65132;52.088;5.402;2023-06-10T04:48:32;101622.88;;;18.46;68.57
76321;BME280;65132;52.088;5.402;2023-06-10T04:51:00;101625.25;;;18.57;67.99
76321;BME280;65132;52.088;5.402;2023-06-10T04:53:38;101629.53;;;18.59;67.51
76321;BME280;65132;52.088;5.402;2023-06-10T04:56:08;101630.19;;;18.61;67.25
76321;BME280;65132;52.088;5.402;2023-06-10T04:58:37;101630.53;;;18.66;67.68
76321;BME280;65132;52.088;5.402;2023-06-10T05:01:09;101631.75;;;18.64;67.28
76321;BME280;65132;52.088;5.402;2023-06-10T05:03:35;101634.44;;;18.72;67.39
76321;BME280;65132;52.088;5.402;2023-06-10T05:06:02;101632.03;;;18.77;67.04
76321;BME280;65132;52.088;5.402;2023-06-10T05:08:29;101630.59;;;18.89;66.84
76321;BME280;65132;52.088;5.402;2023-06-10T05:10:55;101630.47;;;18.82;66.73
76321;BME280;65132;52.088;5.402;2023-06-10T05:13:38;101629.03;;;18.94;66.60
76321;BME280;65132;52.088;5.402;2023-06-10T05:16:05;101630.03;;;19.01;66.80
76321;BME280;65132;52.088;5.402;2023-06-10T05:18:34;101635.16;;;19.04;66.75
76321;BME280;65132;52.088;5.402;2023-06-10T05:21:01;101626.88;;;19.13;66.81
76321;BME280;65132;52.088;5.402;2023-06-10T05:23:28;101631.59;;;19.27;66.29
76321;BME280;65132;52.088;5.402;2023-06-10T05:25:54;101630.06;;;19.24;65.97
76321;BME280;65132;52.088;5.402;2023-06-10T05:28:22;101627.31;;;19.24;65.94
76321;BME280;65132;52.088;5.402;2023-06-10T05:30:48;101633.09;;;19.29;65.80
76321;BME280;65132;52.088;5.402;2023-06-10T05:33:14;101630.91;;;19.25;65.53
76321;BME280;65132;52.088;5.402;2023-06-10T05:35:43;101636.34;;;19.41;65.98
76321;BME280;65132;52.088;5.402;2023-06-10T05:38:13;101633.91;;;19.46;65.42
76321;BME280;65132;52.088;5.402;2023-06-10T05:40:39;101635.72;;;19.53;65.68
76321;BME280;65132;52.088;5.402;2023-06-10T05:43:05;101637.19;;;19.64;65.90
76321;BME280;65132;52.088;5.402;2023-06-10T05:45:34;101645.84;;;19.75;65.19
76321;BME280;65132;52.088;5.402;2023-06-10T05:48:00;101632.59;;;19.79;65.33
76321;BME280;65132;52.088;5.402;2023-06-10T05:50:27;101638.88;;;19.87;65.59
76321;BME280;65132;52.088;5.402;2023-06-10T05:52:53;101645.44;;;20.01;65.20
76321;BME280;65132;52.088;5.402;2023-06-10T05:55:19;101647.03;;;20.18;64.45
76321;BME280;65132;52.088;5.402;2023-06-10T05:57:57;101645.16;;;20.18;64.20
76321;BME280;65132;52.088;5.402;2023-06-10T06:00:24;101639.75;;;20.25;64.84
76321;BME280;65132;52.088;5.402;2023-06-10T06:02:50;101632.94;;;20.36;64.44
76321;BME280;65132;52.088;5.402;2023-06-10T06:05:17;101638.34;;;20.44;64.38
76321;BME280;65132;52.088;5.402;2023-06-10T06:07:48;101639.88;;;20.61;62.84
76321;BME280;65132;52.088;5.402;2023-06-10T06:10:17;101643.88;;;20.58;62.37
76321;BME280;65132;52.088;5.402;2023-06-10T06:12:44;101637.28;;;20.74;62.87
76321;BME280;65132;52.088;5.402;2023-06-10T06:15:11;101641.09;;;20.73;62.60
76321;BME280;65132;52.088;5.402;2023-06-10T06:17:38;101635.75;;;20.86;62.06
76321;BME280;65132;52.088;5.402;2023-06-10T06:20:05;101643.66;;;21.03;62.09
76321;BME280;65132;52.088;5.402;2023-06-10T06:22:32;101631.50;;;20.83;61.10
76321;BME280;65132;52.088;5.402;2023-06-10T06:24:59;101636.78;;;21.14;61.37
76321;BME280;65132;52.088;5.402;2023-06-10T06:27:26;101631.56;;;21.19;60.96
76321;BME280;65132;52.088;5.402;2023-06-10T06:29:54;101630.63;;;21.12;60.92
76321;BME280;65132;52.088;5.402;2023-06-10T06:32:25;101635.38;;;21.39;60.28
76321;BME280;65132;52.088;5.402;2023-06-10T06:34:51;101630.72;;;21.61;60.11
76321;BME280;65132;52.088;5.402;2023-06-10T06:37:20;101631.53;;;21.76;58.45
76321;BME280;65132;52.088;5.402;2023-06-10T06:39:50;101629.06;;;21.81;59.31
76321;BME280;65132;52.088;5.402;2023-06-10T06:42:17;101629.59;;;21.76;58.23
76321;BME280;65132;52.088;5.402;2023-06-10T06:44:44;101636.56;;;22.14;59.28
76321;BME280;65132;52.088;5.402;2023-06-10T06:47:15;101630.69;;;22.24;58.28
76321;BME280;65132;52.088;5.402;2023-06-10T06:49:42;101623.34;;;22.37;57.16
76321;BME280;65132;52.088;5.402;2023-06-10T06:52:08;101623.47;;;22.50;56.16
76321;BME280;65132;52.088;5.402;2023-06-10T06:54:37;101624.22;;;22.66;56.52
76321;BME280;65132;52.088;5.402;2023-06-10T06:57:03;101633.25;;;22.94;55.96
76321;BME280;65132;52.088;5.402;2023-06-10T06:59:31;101633.16;;;23.21;54.28
76321;BME280;65132;52.088;5.402;2023-06-10T07:01:59;101634.25;;;23.27;53.55
76321;BME280;65132;52.088;5.402;2023-06-10T07:04:25;101640.25;;;23.37;54.44
76321;BME280;65132;52.088;5.402;2023-06-10T07:06:53;101631.38;;;23.01;54.14
76321;BME280;65132;52.088;5.402;2023-06-10T07:09:21;101640.31;;;23.03;54.21
76321;BME280;65132;52.088;5.402;2023-06-10T07:11:47;101646.66;;;23.50;53.22
76321;BME280;65132;52.088;5.402;2023-06-10T07:14:16;101639.91;;;23.79;51.63
76321;BME280;65132;52.088;5.402;2023-06-10T07:16:42;101643.78;;;24.24;52.00
76321;BME280;65132;52.088;5.402;2023-06-10T07:19:14;101649.06;;;24.38;53.03
76321;BME280;65132;52.088;5.402;2023-06-10T07:21:40;101641.81;;;24.63;50.89
76321;BME280;65132;52.088;5.402;2023-06-10T07:24:06;101644.16;;;24.60;50.19
76321;BME280;65132;52.088;5.402;2023-06-10T07:26:33;101640.34;;;24.48;50.26
76321;BME280;65132;52.088;5.402;2023-06-10T07:28:59;101650.78;;;24.52;50.63
76321;BME280;65132;52.088;5.402;2023-06-10T07:31:26;101645.25;;;24.39;49.53
76321;BME280;65132;52.088;5.402;2023-06-10T07:33:52;101644.38;;;24.71;49.09
76321;BME280;65132;52.088;5.402;2023-06-10T07:36:19;101649.66;;;24.93;48.83
76321;BME280;65132;52.088;5.402;2023-06-10T07:38:48;101650.25;;;24.95;49.09
76321;BME280;65132;52.088;5.402;2023-06-10T07:41:14;101650.06;;;25.47;48.06
76321;BME280;65132;52.088;5.402;2023-06-10T07:43:54;101648.28;;;25.08;47.57
76321;BME280;65132;52.088;5.402;2023-06-10T07:46:20;101649.66;;;24.93;48.13
76321;BME280;65132;52.088;5.402;2023-06-10T07:48:48;101660.16;;;25.66;48.25
76321;BME280;65132;52.088;5.402;2023-06-10T07:51:16;101648.97;;;25.48;46.47
76321;BME280;65132;52.088;5.402;2023-06-10T07:53:43;101650.63;;;25.86;46.20
76321;BME280;65132;52.088;5.402;2023-06-10T07:56:12;101650.16;;;25.96;46.73
76321;BME280;65132;52.088;5.402;2023-06-10T07:58:42;101652.75;;;25.91;46.99
76321;BME280;65132;52.088;5.402;2023-06-10T08:01:08;101649.69;;;26.30;46.75
76321;BME280;65132;52.088;5.402;2023-06-10T08:03:40;101652.72;;;26.47;44.89
76321;BME280;65132;52.088;5.402;2023-06-10T08:06:08;101663.06;;;26.15;45.39
76321;BME280;65132;52.088;5.402;2023-06-10T08:08:36;101658.09;;;26.17;46.07
76321;BME280;65132;52.088;5.402;2023-06-10T08:11:02;101649.06;;;26.28;47.43
76321;BME280;65132;52.088;5.402;2023-06-10T08:13:29;101655.03;;;26.92;45.54
76321;BME280;65132;52.088;5.402;2023-06-10T08:15:55;101647.81;;;26.67;43.35
76321;BME280;65132;52.088;5.402;2023-06-10T08:18:21;101643.72;;;27.24;45.06
76321;BME280;65132;52.088;5.402;2023-06-10T08:20:50;101643.19;;;26.97;43.62
76321;BME280;65132;52.088;5.402;2023-06-10T08:23:25;101635.03;;;27.02;43.69
76321;BME280;65132;52.088;5.402;2023-06-10T08:25:51;101643.91;;;27.29;43.43
76321;BME280;65132;52.088;5.402;2023-06-10T08:28:28;101635.25;;;27.19;43.63
76321;BME280;65132;52.088;5.402;2023-06-10T08:30:54;101650.94;;;27.61;43.44
76321;BME280;65132;52.088;5.402;2023-06-10T08:33:24;101647.94;;;27.26;42.34
76321;BME280;65132;52.088;5.402;2023-06-10T08:35:50;101644.41;;;27.67;42.65
76321;BME280;65132;52.088;5.402;2023-06-10T08:38:26;101646.41;;;27.48;41.03
76321;BME280;65132;52.088;5.402;2023-06-10T08:40:56;101650.59;;;27.98;42.21
76321;BME280;65132;52.088;5.402;2023-06-10T08:46:00;101643.66;;;28.65;39.90
76321;BME280;65132;52.088;5.402;2023-06-10T08:48:32;101649.19;;;28.88;38.27
76321;BME280;65132;52.088;5.402;2023-06-10T08:51:03;101648.09;;;28.89;38.54
76321;BME280;65132;52.088;5.402;2023-06-10T08:53:33;101647.16;;;28.61;39.26
76321;BME280;65132;52.088;5.402;2023-06-10T08:56:05;101642.88;;;28.81;39.05
76321;BME280;65132;52.088;5.402;2023-06-10T08:58:32;101647.00;;;28.67;38.42
76321;BME280;65132;52.088;5.402;2023-06-10T09:01:08;101651.94;;;29.23;37.76
76321;BME280;65132;52.088;5.402;2023-06-10T09:03:37;101652.91;;;29.17;38.98
76321;BME280;65132;52.088;5.402;2023-06-10T09:06:07;101650.22;;;29.22;36.78
76321;BME280;65132;52.088;5.402;2023-06-10T09:08:33;101660.13;;;28.67;37.76
76321;BME280;65132;52.088;5.402;2023-06-10T09:11:02;101651.78;;;29.29;36.58
76321;BME280;65132;52.088;5.402;2023-06-10T09:13:38;101661.91;;;28.96;37.45
76321;BME280;65132;52.088;5.402;2023-06-10T09:16:12;101651.50;;;28.68;37.51
76321;BME280;65132;52.088;5.402;2023-06-10T09:18:59;101644.50;;;29.57;37.06
76321;BME280;65132;52.088;5.402;2023-06-10T09:21:26;101647.34;;;29.45;36.56
76321;BME280;65132;52.088;5.402;2023-06-10T09:23:53;101642.91;;;29.89;37.34
76321;BME280;65132;52.088;5.402;2023-06-10T09:26:27;101648.41;;;29.84;35.22
76321;BME280;65132;52.088;5.402;2023-06-10T09:29:04;101640.00;;;30.28;35.64
76321;BME280;65132;52.088;5.402;2023-06-10T09:31:34;101643.03;;;29.54;36.32
76321;BME280;65132;52.088;5.402;2023-06-10T09:34:09;101637.81;;;30.30;35.48
76321;BME280;65132;52.088;5.402;2023-06-10T09:36:40;101653.94;;;30.12;35.55
76321;BME280;65132;52.088;5.402;2023-06-10T09:39:17;101639.19;;;30.66;36.63
76321;BME280;65132;52.088;5.402;2023-06-10T09:41:46;101637.44;;;31.41;34.13
76321;BME280;65132;52.088;5.402;2023-06-10T09:44:14;101642.66;;;30.73;34.98
76321;BME280;65132;52.088;5.402;2023-06-10T09:46:41;101636.59;;;30.43;35.05
76321;BME280;65132;52.088;5.402;2023-06-10T09:49:08;101643.00;;;30.60;35.52
76321;BME280;65132;52.088;5.402;2023-06-10T09:51:49;101636.00;;;30.96;34.47
76321;BME280;65132;52.088;5.402;2023-06-10T09:54:25;101628.66;;;31.33;32.88
76321;BME280;65132;52.088;5.402;2023-06-10T09:57:07;101635.69;;;30.76;34.57
76321;BME280;65132;52.088;5.402;2023-06-10T09:59:35;101630.66;;;30.94;34.22
76321;BME280;65132;52.088;5.402;2023-06-10T10:02:04;101632.59;;;30.56;35.18
76321;BME280;65132;52.088;5.402;2023-06-10T10:04:36;101632.09;;;30.09;35.02
76321;BME280;65132;52.088;5.402;2023-06-10T10:07:05;101631.53;;;31.38;35.99
76321;BME280;65132;52.088;5.402;2023-06-10T10:09:41;101625.00;;;30.34;33.64
76321;BME280;65132;52.088;5.402;2023-06-10T10:12:14;101636.75;;;30.36;33.94
76321;BME280;65132;52.088;5.402;2023-06-10T10:14:46;101624.88;;;31.44;33.77
76321;BME280;65132;52.088;5.402;2023-06-10T10:17:14;101630.09;;;31.62;32.70
76321;BME280;65132;52.088;5.402;2023-06-10T10:19:57;101631.09;;;31.78;32.97
76321;BME280;65132;52.088;5.402;2023-06-10T10:22:31;101619.72;;;32.52;30.82
76321;BME280;65132;52.088;5.402;2023-06-10T10:25:02;101616.59;;;32.44;29.90
76321;BME280;65132;52.088;5.402;2023-06-10T10:27:40;101615.81;;;33.00;30.81
76321;BME280;65132;52.088;5.402;2023-06-10T10:30:15;101617.03;;;32.72;29.99
76321;BME280;65132;52.088;5.402;2023-06-10T10:33:06;101615.97;;;33.35;29.61
76321;BME280;65132;52.088;5.402;2023-06-10T10:35:37;101618.78;;;31.04;30.59
76321;BME280;65132;52.088;5.402;2023-06-10T10:38:04;101616.06;;;32.15;30.73
76321;BME280;65132;52.088;5.402;2023-06-10T10:40:34;101610.78;;;33.02;28.83
76321;BME280;65132;52.088;5.402;2023-06-10T10:43:01;101601.75;;;32.12;29.28
76321;BME280;65132;52.088;5.402;2023-06-10T10:45:28;101611.03;;;32.49;28.25
76321;BME280;65132;52.088;5.402;2023-06-10T10:47:55;101611.44;;;33.29;29.47
76321;BME280;65132;52.088;5.402;2023-06-10T10:50:28;101619.84;;;33.24;29.26
76321;BME280;65132;52.088;5.402;2023-06-10T10:52:59;101613.97;;;33.26;26.96
76321;BME280;65132;52.088;5.402;2023-06-10T10:55:26;101601.66;;;33.37;28.14
76321;BME280;65132;52.088;5.402;2023-06-10T11:00:37;101606.09;;;32.71;26.68
76321;BME280;65132;52.088;5.402;2023-06-10T11:08:05;101595.53;;;33.45;26.91
76321;BME280;65132;52.088;5.402;2023-06-10T11:10:33;101602.88;;;33.66;26.39
76321;BME280;65132;52.088;5.402;2023-06-10T11:13:12;101594.59;;;33.24;24.71
76321;BME280;65132;52.088;5.402;2023-06-10T11:15:52;101585.47;;;33.69;26.25
76321;BME280;65132;52.088;5.402;2023-06-10T11:18:38;101586.88;;;34.22;25.60
76321;BME280;65132;52.088;5.402;2023-06-10T11:21:12;101574.78;;;33.86;26.37
76321;BME280;65132;52.088;5.402;2023-06-10T11:23:40;101575.03;;;33.59;26.06
76321;BME280;65132;52.088;5.402;2023-06-10T11:31:23;101584.59;;;33.58;25.67
76321;BME280;65132;52.088;5.402;2023-06-10T11:34:01;101578.97;;;33.53;26.28
76321;BME280;65132;52.088;5.402;2023-06-10T11:36:28;101571.88;;;33.36;26.04
76321;BME280;65132;52.088;5.402;2023-06-10T11:39:01;101574.78;;;33.56;25.81
76321;BME280;65132;52.088;5.402;2023-06-10T11:41:34;101567.50;;;34.20;26.13
76321;BME280;65132;52.088;5.402;2023-06-10T11:44:11;101567.38;;;32.21;26.26
76321;BME280;65132;52.088;5.402;2023-06-10T11:46:41;101575.59;;;33.71;25.75
76321;BME280;65132;52.088;5.402;2023-06-10T11:49:09;101563.16;;;33.37;25.10
76321;BME280;65132;52.088;5.402;2023-06-10T11:51:50;101560.56;;;32.49;25.90
76321;BME280;65132;52.088;5.402;2023-06-10T11:54:17;101558.69;;;32.23;26.46
76321;BME280;65132;52.088;5.402;2023-06-10T11:56:46;101561.56;;;32.79;26.61
76321;BME280;65132;52.088;5.402;2023-06-10T11:59:13;101559.31;;;33.53;25.40
76321;BME280;65132;52.088;5.402;2023-06-10T12:01:46;101558.50;;;33.73;25.04
76321;BME280;65132;52.088;5.402;2023-06-10T12:04:15;101545.00;;;33.65;25.85
76321;BME280;65132;52.088;5.402;2023-06-10T12:06:42;101554.03;;;34.17;23.47
76321;BME280;65132;52.088;5.402;2023-06-10T12:09:29;101545.28;;;34.29;24.38
76321;BME280;65132;52.088;5.402;2023-06-10T12:12:00;101542.38;;;34.69;23.28
76321;BME280;65132;52.088;5.402;2023-06-10T12:20:26;101530.66;;;34.27;25.56
76321;BME280;65132;52.088;5.402;2023-06-10T12:23:01;101530.13;;;33.84;24.79
76321;BME280;65132;52.088;5.402;2023-06-10T12:25:36;101526.19;;;33.80;26.46
76321;BME280;65132;52.088;5.402;2023-06-10T12:28:05;101526.44;;;34.24;24.82
76321;BME280;65132;52.088;5.402;2023-06-10T12:30:40;101524.91;;;34.67;25.11
76321;BME280;65132;52.088;5.402;2023-06-10T12:33:15;101516.56;;;34.47;25.02
76321;BME280;65132;52.088;5.402;2023-06-10T12:35:50;101530.53;;;35.31;25.42
76321;BME280;65132;52.088;5.402;2023-06-10T12:38:24;101522.56;;;34.94;23.54
76321;BME280;65132;52.088;5.402;2023-06-10T12:40:57;101518.19;;;35.22;25.34
76321;BME280;65132;52.088;5.402;2023-06-10T12:43:30;101528.16;;;35.53;24.65
76321;BME280;65132;52.088;5.402;2023-06-10T12:46:08;101524.03;;;36.07;24.04
76321;BME280;65132;52.088;5.402;2023-06-10T12:48:49;101515.38;;;35.22;23.27
76321;BME280;65132;52.088;5.402;2023-06-10T12:51:15;101518.72;;;35.67;24.67
76321;BME280;65132;52.088;5.402;2023-06-10T12:53:49;101519.53;;;36.06;22.60
76321;BME280;65132;52.088;5.402;2023-06-10T12:56:15;101520.63;;;35.77;23.90
76321;BME280;65132;52.088;5.402;2023-06-10T12:58:42;101525.56;;;35.61;23.27
76321;BME280;65132;52.088;5.402;2023-06-10T13:01:11;101532.72;;;35.44;23.80
76321;BME280;65132;52.088;5.402;2023-06-10T13:03:38;101527.63;;;35.46;22.99
76321;BME280;65132;52.088;5.402;2023-06-10T13:06:07;101522.50;;;35.91;22.68
76321;BME280;65132;52.088;5.402;2023-06-10T13:08:35;101513.81;;;36.11;22.54
76321;BME280;65132;52.088;5.402;2023-06-10T13:11:06;101516.25;;;34.53;22.90
76321;BME280;65132;52.088;5.402;2023-06-10T13:13:36;101518.41;;;34.81;23.32
76321;BME280;65132;52.088;5.402;2023-06-10T13:16:03;101511.94;;;35.40;23.59
76321;BME280;65132;52.088;5.402;2023-06-10T13:18:29;101503.97;;;35.03;22.51
76321;BME280;65132;52.088;5.402;2023-06-10T13:20:58;101510.19;;;35.44;23.11
76321;BME280;65132;52.088;5.402;2023-06-10T13:23:29;101516.59;;;35.54;22.78
76321;BME280;65132;52.088;5.402;2023-06-10T13:25:57;101502.69;;;34.70;22.60
76321;BME280;65132;52.088;5.402;2023-06-10T13:28:29;101504.00;;;33.99;23.19
76321;BME280;65132;52.088;5.402;2023-06-10T13:30:58;101497.19;;;35.09;23.54